Cabins, West Virginia
Current Conditions -  °F | °C
As of 2:15 PM on Friday 21 Nov 2014 (Local Time) from KW99 Reporting Station
Clear Clear  
Wind Chill: 35°   Ceiling: Unl
Heat Index: 35°   Visibility: 10mi
Dew Point:   Wind: 0mph
Humidity: 24%   Direction: NA
Pressure: 30.43"   Gusts: NA
Location:  39°N, 79.21°W
Report Text: KW99 211915Z AUTO 00000KT 10SM CLR 02/M17 A3043 RMK AO2 T00161172
Loading
Personal Weather Stations






























Interactive Weather Map New forecast layout! Learn more

10-Day Weather Forecast

Advertisements
Track Severe Weather on mobile